Time;durP1;ratioP1;P1;durP2;ratioP2;P2;SDS_P1;SDS_P2;PMS_P1;PMS_P2;Temp;Humidity;BMP_temperature;BMP_pressure;BME280_temperature;BME280_humidity;BME280_pressure;Samples;Min_cycle;Max_cycle;Signal;HPM_P1;HPM_P2
2024/04/04 00:00:40;;;;;;;1.90;1.70;;;9.50;99.90;;;;;;5041071;28;20326;-73
2024/04/04 00:03:07;;;;;;;2.00;1.90;;;9.50;99.90;;;;;;5042725;28;20306;-71
2024/04/04 00:05:34;;;;;;;1.95;1.85;;;9.40;99.90;;;;;;5044055;28;20222;-71
2024/04/04 00:08:01;;;;;;;1.95;1.85;;;9.40;99.90;;;;;;5043548;28;20219;-72
2024/04/04 00:10:26;;;;;;;1.88;1.77;;;9.40;99.90;;;;;;5046770;28;21212;-71
2024/04/04 00:12:55;;;;;;;2.35;2.17;;;9.40;99.90;;;;;;5043551;28;20225;-71
2024/04/04 00:15:21;;;;;;;2.00;1.90;;;9.40;99.90;;;;;;5047987;28;20222;-71
2024/04/04 00:17:48;;;;;;;1.92;1.83;;;9.30;99.90;;;;;;5040835;28;20307;-71
2024/04/04 00:20:15;;;;;;;2.00;1.90;;;9.30;99.90;;;;;;5043011;28;20226;-71
2024/04/04 00:22:42;;;;;;;1.98;1.85;;;9.30;99.90;;;;;;5048327;28;20219;-71
2024/04/04 00:25:08;;;;;;;2.20;2.10;;;9.20;99.90;;;;;;5045920;28;20214;-71
2024/04/04 00:27:35;;;;;;;1.80;1.70;;;9.20;99.90;;;;;;5040118;28;20230;-71
2024/04/04 00:30:04;;;;;;;1.75;1.65;;;9.10;99.90;;;;;;5044141;28;20281;-71
2024/04/04 00:32:31;;;;;;;1.90;1.80;;;9.20;99.90;;;;;;5046451;28;20266;-71
2024/04/04 00:34:57;;;;;;;1.92;1.83;;;9.20;99.90;;;;;;5048910;28;22094;-71
2024/04/04 00:37:24;;;;;;;1.83;1.73;;;9.20;99.90;;;;;;5047922;28;20770;-71
2024/04/04 00:39:50;;;;;;;1.90;1.80;;;9.20;99.90;;;;;;5045420;28;20313;-71
2024/04/04 00:42:17;;;;;;;1.70;1.60;;;9.20;99.90;;;;;;5046069;28;20301;-71
2024/04/04 00:44:43;;;;;;;2.00;1.90;;;9.20;99.90;;;;;;5044414;28;20314;-71
2024/04/04 00:47:12;;;;;;;2.10;1.63;;;9.10;99.90;;;;;;5042648;28;20301;-71
2024/04/04 00:49:38;;;;;;;2.00;1.90;;;9.10;99.90;;;;;;5047099;28;20253;-71
2024/04/04 00:52:09;;;;;;;2.00;1.90;;;9.00;99.90;;;;;;5046096;28;20219;-71
2024/04/04 00:54:38;;;;;;;2.13;2.03;;;9.00;99.90;;;;;;5043553;28;20691;-72
2024/04/04 00:57:05;;;;;;;2.22;2.13;;;9.00;99.90;;;;;;5041829;28;20772;-71
2024/04/04 00:59:31;;;;;;;2.15;2.00;;;9.00;99.90;;;;;;5046921;28;20337;-71
2024/04/04 01:01:58;;;;;;;1.90;1.80;;;9.00;99.90;;;;;;5045923;28;20222;-71
2024/04/04 01:04:26;;;;;;;2.03;1.80;;;9.00;99.90;;;;;;5046860;28;20211;-71
2024/04/04 01:06:53;;;;;;;1.60;1.48;;;9.00;99.90;;;;;;5044847;28;20242;-71
2024/04/04 01:09:19;;;;;;;2.00;1.90;;;9.00;99.90;;;;;;5045505;28;20309;-72
2024/04/04 01:11:46;;;;;;;1.77;1.77;;;9.00;99.90;;;;;;5041363;28;20414;-72
2024/04/04 01:14:12;;;;;;;2.50;2.08;;;9.00;99.90;;;;;;5039419;28;20682;-71
2024/04/04 01:16:39;;;;;;;2.15;2.00;;;9.00;99.90;;;;;;5040230;28;20229;-71
2024/04/04 01:19:05;;;;;;;1.83;1.73;;;8.90;99.90;;;;;;5039513;28;20223;-72
2024/04/04 01:21:33;;;;;;;1.67;1.58;;;8.90;99.90;;;;;;5033840;28;20226;-72
2024/04/04 01:24:00;;;;;;;1.77;1.65;;;8.90;99.90;;;;;;5041523;28;20310;-72
2024/04/04 01:26:28;;;;;;;2.00;1.90;;;8.90;99.90;;;;;;5058323;28;20280;-73
2024/04/04 01:28:54;;;;;;;2.15;1.95;;;8.90;99.90;;;;;;5024423;28;20624;-72
2024/04/04 01:31:21;;;;;;;2.15;2.00;;;8.90;99.90;;;;;;5027497;28;20223;-72
2024/04/04 01:33:47;;;;;;;1.80;1.70;;;8.80;99.90;;;;;;5039949;28;20230;-73
2024/04/04 01:36:14;;;;;;;2.00;1.90;;;8.80;99.90;;;;;;5038741;28;20218;-72
2024/04/04 01:38:40;;;;;;;2.00;1.90;;;8.70;99.90;;;;;;5042315;28;20314;-72
2024/04/04 01:41:09;;;;;;;2.22;2.10;;;8.70;99.90;;;;;;5039322;28;20301;-72
2024/04/04 01:43:35;;;;;;;1.88;1.77;;;8.70;99.90;;;;;;5040789;28;20286;-72
2024/04/04 01:46:03;;;;;;;2.03;1.92;;;8.70;99.90;;;;;;5026900;28;20227;-72
2024/04/04 01:48:28;;;;;;;2.00;1.90;;;8.70;99.90;;;;;;5023146;28;20227;-72
2024/04/04 01:50:55;;;;;;;2.00;1.90;;;8.80;99.90;;;;;;5036064;28;20677;-73
2024/04/04 01:53:23;;;;;;;2.20;2.10;;;8.80;99.90;;;;;;5038631;28;20704;-71
2024/04/04 01:55:50;;;;;;;2.08;1.98;;;8.80;99.90;;;;;;5042789;28;20747;-71
2024/04/04 01:58:17;;;;;;;2.08;1.95;;;8.80;99.90;;;;;;5042341;28;20302;-71
2024/04/04 02:00:44;;;;;;;2.05;1.75;;;8.70;99.90;;;;;;5027401;28;20351;-73
2024/04/04 02:03:11;;;;;;;2.08;1.88;;;8.60;99.90;;;;;;5029628;28;20277;-72
2024/04/04 02:05:38;;;;;;;2.42;2.28;;;8.60;99.90;;;;;;5039677;28;20296;-72
2024/04/04 02:08:04;;;;;;;2.20;2.10;;;8.50;99.90;;;;;;5040036;28;20287;-71
2024/04/04 02:10:32;;;;;;;2.08;1.85;;;8.60;99.90;;;;;;5041492;28;20223;-71
2024/04/04 02:12:58;;;;;;;2.10;2.00;;;8.60;99.90;;;;;;5035391;28;20219;-72
2024/04/04 02:15:27;;;;;;;1.90;1.80;;;8.60;99.90;;;;;;5040611;28;20214;-72
2024/04/04 02:17:53;;;;;;;1.98;1.88;;;8.70;99.90;;;;;;5037357;28;21159;-71
2024/04/04 02:20:20;;;;;;;2.38;1.98;;;8.70;99.90;;;;;;5040821;28;20208;-71
2024/04/04 02:22:46;;;;;;;1.90;1.80;;;8.70;99.90;;;;;;5037628;28;20782;-71
2024/04/04 02:25:14;;;;;;;2.33;2.10;;;8.70;99.90;;;;;;5040162;28;20226;-71
2024/04/04 02:27:40;;;;;;;2.20;2.00;;;8.70;99.90;;;;;;5039854;28;20246;-71
2024/04/04 02:30:08;;;;;;;2.10;2.00;;;8.60;99.90;;;;;;5041968;28;20288;-71
2024/04/04 02:32:36;;;;;;;2.10;1.95;;;8.60;99.90;;;;;;5040529;28;20839;-72
2024/04/04 02:35:04;;;;;;;2.13;2.03;;;8.60;99.90;;;;;;5040570;28;20583;-71
2024/04/04 02:37:31;;;;;;;2.10;2.00;;;8.60;99.90;;;;;;5038941;28;20635;-72
2024/04/04 02:39:57;;;;;;;2.13;2.03;;;8.60;99.90;;;;;;5041123;28;20310;-72
2024/04/04 02:42:24;;;;;;;2.25;2.13;;;8.60;99.90;;;;;;5038591;28;20676;-71
2024/04/04 02:44:51;;;;;;;2.03;1.92;;;8.50;99.90;;;;;;5038797;28;20223;-71
2024/04/04 02:47:18;;;;;;;1.90;1.80;;;8.50;99.90;;;;;;5041592;28;20313;-71
2024/04/04 02:49:45;;;;;;;1.95;1.85;;;8.50;99.90;;;;;;5042960;28;21037;-72
2024/04/04 02:52:12;;;;;;;2.00;1.90;;;8.50;99.90;;;;;;5037300;28;20778;-71
2024/04/04 02:54:38;;;;;;;1.92;1.83;;;8.50;99.90;;;;;;5040537;28;20318;-71
2024/04/04 02:57:05;;;;;;;2.20;2.10;;;8.40;99.90;;;;;;5033501;28;20302;-71
2024/04/04 02:59:31;;;;;;;2.00;1.90;;;8.40;99.90;;;;;;5041188;28;20218;-71
2024/04/04 03:01:58;;;;;;;2.20;2.00;;;8.40;99.90;;;;;;5040554;28;20301;-73
2024/04/04 03:04:24;;;;;;;2.10;2.00;;;8.40;99.90;;;;;;5038560;28;20226;-71
2024/04/04 03:06:53;;;;;;;1.90;1.80;;;8.40;99.90;;;;;;5038878;28;20306;-71
2024/04/04 03:09:20;;;;;;;2.25;2.13;;;8.50;99.90;;;;;;5038848;28;20301;-71
2024/04/04 03:11:47;;;;;;;2.20;2.10;;;8.50;99.90;;;;;;5025380;28;20210;-71
2024/04/04 03:14:13;;;;;;;2.05;1.95;;;8.50;99.90;;;;;;5035722;28;20298;-71
2024/04/04 03:16:40;;;;;;;2.00;1.90;;;8.50;99.90;;;;;;5026975;28;20608;-71
2024/04/04 03:19:06;;;;;;;1.80;1.70;;;8.50;99.90;;;;;;5038868;28;20302;-71
2024/04/04 03:21:33;;;;;;;2.00;1.90;;;8.50;99.90;;;;;;5037673;28;20294;-71
2024/04/04 03:24:00;;;;;;;2.22;2.08;;;8.50;99.90;;;;;;5041175;28;20931;-71
2024/04/04 03:26:27;;;;;;;1.90;1.80;;;8.50;99.90;;;;;;5024133;28;20253;-70
2024/04/04 03:28:53;;;;;;;2.05;1.95;;;8.50;99.90;;;;;;5040315;28;20289;-70
2024/04/04 03:31:20;;;;;;;2.33;2.22;;;8.40;99.90;;;;;;5021150;28;22688;-70
2024/04/04 03:33:46;;;;;;;2.00;1.90;;;8.40;99.90;;;;;;5035834;28;20254;-71
2024/04/04 03:36:13;;;;;;;2.00;1.77;;;8.40;99.90;;;;;;5037550;28;20243;-70
2024/04/04 03:38:40;;;;;;;2.10;2.00;;;8.30;99.90;;;;;;5041775;28;20301;-71
2024/04/04 03:41:09;;;;;;;2.15;2.05;;;8.40;99.90;;;;;;5053165;28;20221;-70
2024/04/04 03:43:35;;;;;;;1.77;1.67;;;8.30;99.90;;;;;;5041874;28;20199;-71
2024/04/04 03:46:03;;;;;;;2.00;1.90;;;8.30;99.90;;;;;;5039948;28;20238;-71
2024/04/04 03:48:29;;;;;;;2.08;1.88;;;8.40;99.90;;;;;;5040786;28;20310;-73
2024/04/04 03:50:56;;;;;;;1.98;1.88;;;8.40;99.90;;;;;;5038276;28;20210;-72
2024/04/04 03:53:22;;;;;;;2.25;2.15;;;8.40;99.90;;;;;;5040572;28;20774;-72
2024/04/04 03:55:49;;;;;;;3.10;2.13;;;8.40;99.90;;;;;;5039283;28;20211;-70
2024/04/04 03:58:18;;;;;;;1.98;1.88;;;8.40;99.90;;;;;;5041864;28;20703;-71
2024/04/04 04:00:45;;;;;;;2.05;1.95;;;8.40;99.90;;;;;;5035850;28;20211;-72
2024/04/04 04:03:11;;;;;;;2.70;2.33;;;8.40;99.90;;;;;;5040433;28;20298;-72
2024/04/04 04:05:40;;;;;;;2.00;1.90;;;8.30;99.90;;;;;;5039269;28;20223;-72
2024/04/04 04:08:06;;;;;;;2.25;2.13;;;8.30;99.90;;;;;;5040594;28;20280;-72
2024/04/04 04:10:33;;;;;;;2.15;2.05;;;8.20;99.90;;;;;;5030491;28;20211;-71
2024/04/04 04:12:59;;;;;;;2.30;2.20;;;8.20;99.90;;;;;;5021767;28;20775;-71
2024/04/04 04:15:28;;;;;;;2.30;2.20;;;8.10;99.90;;;;;;5021389;28;20215;-71
2024/04/04 04:17:53;;;;;;;2.40;2.25;;;8.10;99.90;;;;;;5036910;28;20321;-71
2024/04/04 04:23:05;;;;;;;2.30;2.20;;;8.10;99.90;;;;;;5038932;28;20229;-71
2024/04/04 04:25:32;;;;;;;2.10;2.00;;;8.10;99.90;;;;;;5040164;28;20214;-73
2024/04/04 04:27:58;;;;;;;2.67;2.47;;;8.10;99.90;;;;;;5038900;28;20645;-71
2024/04/04 04:30:27;;;;;;;2.20;2.10;;;8.10;99.90;;;;;;5037526;28;20221;-71
2024/04/04 04:32:53;;;;;;;2.40;2.20;;;8.10;99.90;;;;;;5040246;28;20309;-71
2024/04/04 04:35:22;;;;;;;2.28;2.17;;;8.10;99.90;;;;;;5041479;28;20215;-71
2024/04/04 04:37:48;;;;;;;2.00;1.90;;;8.10;99.90;;;;;;5036086;28;20223;-71
2024/04/04 04:40:15;;;;;;;2.10;2.00;;;8.10;99.90;;;;;;5036152;28;20882;-71
2024/04/04 04:42:41;;;;;;;2.13;2.03;;;8.10;99.90;;;;;;5037800;28;20309;-71
2024/04/04 04:45:09;;;;;;;4.03;2.90;;;8.10;99.90;;;;;;5027685;28;20251;-71
2024/04/04 04:47:37;;;;;;;2.10;2.00;;;8.10;99.90;;;;;;5030043;28;20234;-71
2024/04/04 04:50:04;;;;;;;2.78;2.45;;;8.10;99.90;;;;;;5040370;28;20658;-71
2024/04/04 04:52:30;;;;;;;2.35;2.20;;;8.10;99.90;;;;;;5041824;28;20409;-72
2024/04/04 04:54:57;;;;;;;2.25;1.90;;;8.10;99.90;;;;;;5042578;28;20332;-72
2024/04/04 04:57:23;;;;;;;2.25;2.15;;;8.10;99.90;;;;;;5028561;28;20231;-71
2024/04/04 04:59:50;;;;;;;2.25;2.00;;;8.10;99.90;;;;;;5037629;28;20233;-71
2024/04/04 05:02:18;;;;;;;2.28;2.17;;;8.00;99.90;;;;;;5027668;28;20311;-71
2024/04/04 05:04:47;;;;;;;2.25;2.15;;;8.10;99.90;;;;;;5046156;28;20223;-71
2024/04/04 05:07:13;;;;;;;2.20;2.00;;;8.00;99.90;;;;;;5048825;28;20295;-71
2024/04/04 05:09:40;;;;;;;1.98;1.88;;;8.00;99.90;;;;;;5026700;28;20218;-71
2024/04/04 05:12:06;;;;;;;2.42;2.22;;;8.10;99.90;;;;;;5043322;28;20306;-71
2024/04/04 05:14:33;;;;;;;2.08;1.98;;;8.10;99.90;;;;;;5042521;28;20297;-71
2024/04/04 05:16:59;;;;;;;2.05;1.95;;;8.20;99.90;;;;;;5041582;28;20231;-72
2024/04/04 05:19:26;;;;;;;2.25;2.10;;;8.20;99.90;;;;;;5041531;28;20223;-73
2024/04/04 05:21:53;;;;;;;2.50;2.30;;;8.20;99.90;;;;;;5041782;28;20340;-72
2024/04/04 05:24:20;;;;;;;2.40;2.30;;;8.20;99.90;;;;;;5038074;28;20233;-72
2024/04/04 05:26:47;;;;;;;2.50;2.30;;;8.30;99.90;;;;;;5042927;28;20218;-71
2024/04/04 05:29:14;;;;;;;2.08;1.98;;;8.50;99.90;;;;;;5042375;28;20585;-72
2024/04/04 05:31:42;;;;;;;1.92;1.83;;;8.70;99.90;;;;;;5027411;28;20317;-71
2024/04/04 05:34:10;;;;;;;2.22;2.13;;;8.80;99.90;;;;;;5040844;28;20581;-71
2024/04/04 05:36:36;;;;;;;2.28;2.17;;;9.00;99.90;;;;;;5039712;28;20223;-71
2024/04/04 05:39:07;;;;;;;2.67;2.47;;;9.30;99.90;;;;;;5045258;28;20221;-71
2024/04/04 05:41:34;;;;;;;2.30;2.13;;;9.60;99.90;;;;;;5045806;28;20215;-71
2024/04/04 05:44:01;;;;;;;2.33;2.15;;;10.00;99.90;;;;;;5047193;28;20207;-71
2024/04/04 05:46:26;;;;;;;2.42;2.22;;;10.40;99.90;;;;;;5040955;28;20952;-71
2024/04/04 05:48:54;;;;;;;3.10;2.53;;;10.80;99.90;;;;;;5042663;28;20298;-71
2024/04/04 05:51:20;;;;;;;2.60;2.40;;;11.00;99.90;;;;;;5035940;28;20246;-71
2024/04/04 05:53:47;;;;;;;3.78;2.92;;;11.00;99.90;;;;;;5045101;28;20356;-71
2024/04/04 05:56:14;;;;;;;3.15;2.72;;;10.80;99.90;;;;;;5040038;28;20301;-73
2024/04/04 05:58:41;;;;;;;2.88;2.65;;;10.70;99.90;;;;;;5039898;28;20198;-72
2024/04/04 06:01:07;;;;;;;4.80;2.58;;;10.60;99.90;;;;;;5025106;28;20657;-72
2024/04/04 06:03:35;;;;;;;2.75;2.35;;;10.40;99.90;;;;;;5032574;28;20329;-72
2024/04/04 06:06:01;;;;;;;2.38;2.17;;;10.40;99.90;;;;;;5040801;28;20226;-71
2024/04/04 06:08:28;;;;;;;2.63;2.40;;;10.30;99.90;;;;;;5040492;28;20225;-72
2024/04/04 06:10:54;;;;;;;2.58;2.38;;;10.20;99.90;;;;;;5038717;28;20277;-71
2024/04/04 06:13:22;;;;;;;3.20;2.85;;;10.10;99.90;;;;;;5040058;28;20219;-71
2024/04/04 06:15:52;;;;;;;2.50;2.30;;;10.00;99.90;;;;;;5034643;28;20219;-71
2024/04/04 06:18:19;;;;;;;2.33;2.22;;;9.90;99.90;;;;;;5041000;28;20214;-71
2024/04/04 06:20:45;;;;;;;2.42;2.22;;;9.80;99.90;;;;;;5029188;28;20298;-71
2024/04/04 06:23:12;;;;;;;3.42;2.70;;;9.80;99.90;;;;;;5013577;28;20756;-72
2024/04/04 06:25:38;;;;;;;2.83;2.50;;;10.10;99.90;;;;;;5041402;28;20243;-72
2024/04/04 06:28:05;;;;;;;3.00;2.70;;;10.40;99.90;;;;;;5040206;28;20699;-72
2024/04/04 06:30:35;;;;;;;2.60;2.40;;;11.00;99.90;;;;;;5030962;28;20219;-72
2024/04/04 06:33:02;;;;;;;3.25;2.50;;;11.40;99.90;;;;;;5027580;28;20319;-72
2024/04/04 06:35:28;;;;;;;3.05;2.85;;;11.80;99.90;;;;;;5025595;28;20274;-72
2024/04/04 06:37:55;;;;;;;3.92;2.83;;;12.10;99.90;;;;;;5024388;28;20252;-71
2024/04/04 06:40:20;;;;;;;3.55;3.00;;;12.40;99.90;;;;;;5022383;28;20254;-73
2024/04/04 06:42:47;;;;;;;2.92;2.50;;;12.70;99.90;;;;;;5024043;28;20242;-71
2024/04/04 06:45:13;;;;;;;3.22;2.58;;;13.00;99.90;;;;;;5027496;28;20243;-71
2024/04/04 06:47:43;;;;;;;3.85;2.70;;;13.20;99.90;;;;;;5025993;28;20237;-72
2024/04/04 06:50:09;;;;;;;2.50;2.30;;;13.50;99.90;;;;;;5024217;28;20258;-72
2024/04/04 06:52:36;;;;;;;2.55;2.35;;;13.60;99.90;;;;;;5022021;28;20219;-73
2024/04/04 06:55:03;;;;;;;4.28;2.10;;;13.90;99.90;;;;;;5018760;28;20326;-72
2024/04/04 06:57:29;;;;;;;2.95;2.55;;;14.00;99.90;;;;;;5021955;28;20310;-71
2024/04/04 06:59:55;;;;;;;2.53;2.30;;;14.20;99.90;;;;;;5021551;28;20551;-72
2024/04/04 07:02:22;;;;;;;2.47;2.25;;;14.40;99.90;;;;;;5021991;28;20263;-72
2024/04/04 07:04:50;;;;;;;2.47;2.28;;;14.70;99.90;;;;;;5022919;28;20655;-72
2024/04/04 07:07:17;;;;;;;3.05;2.50;;;14.70;99.90;;;;;;5014554;28;20235;-74
2024/04/04 07:09:43;;;;;;;3.50;2.78;;;14.70;99.90;;;;;;5016334;28;20365;-72
2024/04/04 07:12:10;;;;;;;2.38;2.17;;;14.80;99.90;;;;;;5016318;28;20260;-72
2024/04/04 07:14:36;;;;;;;12.60;2.67;;;15.00;99.90;;;;;;5045622;28;20314;-72
2024/04/04 07:17:03;;;;;;;2.70;1.95;;;15.40;99.90;;;;;;5015026;28;20231;-73
2024/04/04 07:19:29;;;;;;;2.35;1.90;;;15.50;99.90;;;;;;5016669;28;20350;-73
2024/04/04 07:21:58;;;;;;;2.53;2.33;;;15.80;99.90;;;;;;5015718;28;20239;-73
2024/04/04 07:24:24;;;;;;;2.33;2.10;;;16.10;99.90;;;;;;5012659;28;22053;-73
2024/04/04 07:26:51;;;;;;;3.45;2.50;;;16.30;99.90;;;;;;4998700;28;20313;-72
2024/04/04 07:29:17;;;;;;;3.72;2.42;;;16.10;99.90;;;;;;5012441;28;21998;-73
2024/04/04 07:31:44;;;;;;;2.33;2.13;;;16.00;99.90;;;;;;5020991;28;20228;-73
2024/04/04 07:34:11;;;;;;;2.13;2.03;;;16.20;99.90;;;;;;5014416;28;20334;-74
2024/04/04 07:36:38;;;;;;;2.97;2.30;;;16.30;99.90;;;;;;5032310;28;20214;-73
2024/04/04 07:39:06;;;;;;;2.53;2.33;;;16.20;99.90;;;;;;5034362;28;20222;-73
2024/04/04 07:41:33;;;;;;;2.97;2.35;;;16.00;99.90;;;;;;5011834;28;20641;-73
2024/04/04 07:44:01;;;;;;;3.50;2.58;;;15.60;99.90;;;;;;5015384;28;20373;-72
2024/04/04 07:46:28;;;;;;;2.75;2.55;;;15.50;99.90;;;;;;5032834;28;20233;-72
2024/04/04 07:48:54;;;;;;;3.00;2.20;;;15.60;99.90;;;;;;5034601;28;20314;-72
2024/04/04 07:51:21;;;;;;;3.10;2.60;;;15.40;99.90;;;;;;5032727;28;20226;-72
2024/04/04 07:53:50;;;;;;;2.60;2.38;;;15.40;99.90;;;;;;5035415;28;20749;-73
2024/04/04 07:56:18;;;;;;;3.42;2.60;;;15.60;99.90;;;;;;5024185;28;20844;-72
2024/04/04 07:58:46;;;;;;;2.78;2.55;;;15.80;99.90;;;;;;5032607;28;20744;-72
2024/04/04 08:01:14;;;;;;;3.03;2.72;;;16.00;99.90;;;;;;5033222;28;20595;-72
2024/04/04 08:03:40;;;;;;;4.10;2.47;;;16.20;99.90;;;;;;5033231;28;20227;-72
2024/04/04 08:06:07;;;;;;;2.30;2.10;;;16.30;99.90;;;;;;5028413;28;20226;-73
2024/04/04 08:08:33;;;;;;;2.97;2.30;;;16.40;99.90;;;;;;5023124;28;20210;-72
2024/04/04 08:11:00;;;;;;;4.68;2.50;;;16.60;99.90;;;;;;5019117;28;20222;-73
2024/04/04 08:13:27;;;;;;;3.25;2.40;;;16.50;99.90;;;;;;5025376;28;20306;-72
2024/04/04 08:15:54;;;;;;;2.90;2.50;;;16.50;99.90;;;;;;5031752;28;20619;-72
2024/04/04 08:18:21;;;;;;;4.40;2.35;;;16.70;99.90;;;;;;5032605;28;20226;-72
2024/04/04 08:20:48;;;;;;;4.72;2.97;;;16.70;99.90;;;;;;5033599;28;20211;-71
2024/04/04 08:23:14;;;;;;;3.70;2.60;;;16.80;99.90;;;;;;5038239;28;21062;-72
2024/04/04 08:25:40;;;;;;;4.28;2.75;;;16.80;99.90;;;;;;5040484;28;20830;-73
2024/04/04 08:28:07;;;;;;;4.07;2.25;;;17.00;99.90;;;;;;5034484;28;20302;-72
2024/04/04 08:30:35;;;;;;;5.72;2.58;;;17.20;99.90;;;;;;5036736;28;20859;-72
2024/04/04 08:33:03;;;;;;;3.13;2.33;;;17.40;99.90;;;;;;5040228;28;20326;-72
2024/04/04 08:35:29;;;;;;;3.78;2.30;;;17.40;99.90;;;;;;5034418;28;20222;-72
2024/04/04 08:37:56;;;;;;;2.58;2.15;;;17.20;99.90;;;;;;5036924;28;20254;-72
2024/04/04 08:40:23;;;;;;;2.50;1.80;;;17.10;99.90;;;;;;5037028;28;20299;-71
2024/04/04 08:42:49;;;;;;;3.63;2.03;;;17.40;99.90;;;;;;5037520;28;20230;-71
2024/04/04 08:45:20;;;;;;;3.35;2.30;;;17.30;99.90;;;;;;5039383;28;20569;-72
2024/04/04 08:47:48;;;;;;;2.90;2.22;;;17.30;99.90;;;;;;5032112;28;20330;-73
2024/04/04 08:50:15;;;;;;;3.85;2.50;;;17.40;99.90;;;;;;5039473;28;22356;-72
2024/04/04 08:52:41;;;;;;;2.40;2.15;;;17.40;99.90;;;;;;5038904;28;20220;-72
2024/04/04 08:55:08;;;;;;;4.05;2.15;;;17.40;99.90;;;;;;5038679;28;20254;-72
2024/04/04 08:57:36;;;;;;;3.63;2.30;;;17.40;99.90;;;;;;5034983;28;20888;-72
2024/04/04 09:00:08;;;;;;;3.25;2.40;;;17.40;99.90;;;;;;5038345;28;20215;-73
2024/04/04 09:02:36;;;;;;;3.20;2.10;;;17.40;99.90;;;;;;5034724;28;20644;-73
2024/04/04 09:05:06;;;;;;;3.65;2.13;;;17.40;99.90;;;;;;5036830;28;20301;-72
2024/04/04 09:07:34;;;;;;;5.68;2.38;;;17.50;99.90;;;;;;5038776;28;20761;-73
2024/04/04 09:10:01;;;;;;;2.80;2.10;;;17.60;99.90;;;;;;5038221;28;20218;-72
2024/04/04 09:12:27;;;;;;;5.95;2.42;;;17.90;99.90;;;;;;5035719;28;20603;-72
2024/04/04 09:14:57;;;;;;;2.47;2.10;;;17.90;99.90;;;;;;5038424;28;20933;-71
2024/04/04 09:17:23;;;;;;;1.80;1.70;;;18.00;99.90;;;;;;5037742;28;20310;-72
2024/04/04 09:19:54;;;;;;;2.15;1.75;;;18.10;99.90;;;;;;5038618;28;21204;-72
2024/04/04 09:22:21;;;;;;;2.00;1.85;;;18.20;99.90;;;;;;5034057;28;20223;-72
2024/04/04 09:24:49;;;;;;;2.10;1.90;;;18.30;99.90;;;;;;5033860;28;20277;-72
2024/04/04 09:27:18;;;;;;;2.30;1.90;;;18.50;99.90;;;;;;5027819;28;20219;-71
2024/04/04 09:29:46;;;;;;;3.72;2.03;;;18.60;99.90;;;;;;5030079;28;20241;-72
2024/04/04 09:32:13;;;;;;;2.08;1.88;;;18.60;99.90;;;;;;5019466;28;20314;-72
2024/04/04 09:34:42;;;;;;;4.72;1.98;;;18.50;99.90;;;;;;5017028;28;20211;-72
2024/04/04 09:37:09;;;;;;;2.38;1.80;;;18.40;99.90;;;;;;5019352;28;21072;-72
2024/04/04 09:39:40;;;;;;;3.40;1.95;;;18.30;99.90;;;;;;5024306;28;20774;-73
2024/04/04 09:42:07;;;;;;;2.20;2.00;;;18.60;99.90;;;;;;5035146;28;20953;-72
2024/04/04 09:44:34;;;;;;;3.72;2.10;;;18.80;99.90;;;;;;5035034;28;20226;-72
2024/04/04 09:47:03;;;;;;;2.95;2.03;;;18.70;99.90;;;;;;5025873;28;20226;-72
2024/04/04 09:49:31;;;;;;;1.90;1.73;;;18.70;99.90;;;;;;5038636;28;20592;-71
2024/04/04 09:51:59;;;;;;;1.98;1.70;;;18.70;99.90;;;;;;5036042;28;20218;-72
2024/04/04 09:54:26;;;;;;;2.60;2.00;;;19.00;99.90;;;;;;5035952;28;20222;-72
2024/04/04 09:56:55;;;;;;;2.20;1.52;;;19.10;99.90;;;;;;5034474;28;20229;-72
2024/04/04 09:59:26;;;;;;;3.35;1.67;;;18.90;99.90;;;;;;5033816;28;20273;-72
2024/04/04 10:01:52;;;;;;;1.98;1.70;;;19.00;99.90;;;;;;5035983;28;20241;-72
2024/04/04 10:04:19;;;;;;;1.88;1.55;;;19.00;99.90;;;;;;5040829;28;20865;-72
2024/04/04 10:06:48;;;;;;;1.67;1.50;;;19.00;99.90;;;;;;5039554;28;20649;-72
2024/04/04 10:09:18;;;;;;;1.50;1.40;;;19.30;99.90;;;;;;5033567;28;20212;-72
2024/04/04 10:11:45;;;;;;;1.70;1.42;;;19.40;99.90;;;;;;5036059;28;20226;-72
2024/04/04 10:14:19;;;;;;;2.35;1.60;;;19.30;99.90;;;;;;5038599;28;20218;-73
2024/04/04 10:16:47;;;;;;;1.88;1.30;;;19.30;99.90;;;;;;5032113;28;20305;-72
2024/04/04 10:19:15;;;;;;;1.50;1.40;;;19.50;99.90;;;;;;5015207;28;20751;-72
2024/04/04 10:21:41;;;;;;;1.75;1.50;;;19.60;99.90;;;;;;5030144;28;20219;-73
2024/04/04 10:24:10;;;;;;;2.25;1.70;;;19.60;99.90;;;;;;5013100;28;20215;-72
2024/04/04 10:26:36;;;;;;;2.60;1.80;;;19.70;99.90;;;;;;5020745;28;20246;-72
2024/04/04 10:29:03;;;;;;;2.53;1.60;;;19.50;99.90;;;;;;5019761;28;20219;-72
2024/04/04 10:31:31;;;;;;;4.38;1.70;;;19.40;99.90;;;;;;5030901;28;20306;-72
2024/04/04 10:34:04;;;;;;;3.22;1.60;;;19.20;99.90;;;;;;5045605;28;20214;-72
2024/04/04 10:36:42;;;;;;;2.45;1.67;;;19.00;99.90;;;;;;5030709;28;20230;-72
2024/04/04 10:39:12;;;;;;;2.90;1.80;;;19.10;99.90;;;;;;5032049;28;20210;-72
2024/04/04 10:41:39;;;;;;;2.50;1.67;;;19.00;99.90;;;;;;5032533;28;20226;-71
2024/04/04 10:44:14;;;;;;;2.92;1.80;;;19.40;99.90;;;;;;5031129;28;20304;-72
2024/04/04 10:46:47;;;;;;;1.58;1.40;;;19.70;99.90;;;;;;5029903;28;20699;-72
2024/04/04 10:49:15;;;;;;;3.58;1.60;;;19.60;99.90;;;;;;5031660;28;20218;-72
2024/04/04 10:51:44;;;;;;;1.45;1.35;;;19.00;99.90;;;;;;5029901;28;20305;-72
2024/04/04 10:54:12;;;;;;;2.78;1.58;;;18.60;99.90;;;;;;5030511;28;20272;-72
2024/04/04 10:56:38;;;;;;;1.40;1.30;;;18.30;99.90;;;;;;5029911;28;22714;-72
2024/04/04 10:59:05;;;;;;;2.13;1.30;;;18.10;99.90;;;;;;5035147;28;20302;-74
2024/04/04 11:01:32;;;;;;;2.10;1.40;;;17.80;99.90;;;;;;5032602;28;20227;-73
2024/04/04 11:04:01;;;;;;;1.58;1.48;;;17.70;99.90;;;;;;5032844;28;20230;-73
2024/04/04 11:06:28;;;;;;;1.42;1.33;;;17.60;99.90;;;;;;5030934;28;20223;-72
2024/04/04 11:08:55;;;;;;;1.48;1.30;;;17.50;99.90;;;;;;5035932;28;20215;-72
2024/04/04 11:11:23;;;;;;;1.55;1.33;;;17.40;99.90;;;;;;5030039;28;20235;-72
2024/04/04 11:13:51;;;;;;;1.60;1.50;;;17.20;99.90;;;;;;5032018;28;21506;-72
2024/04/04 11:16:18;;;;;;;1.60;1.20;;;17.10;99.90;;;;;;5030088;28;20891;-73
2024/04/04 11:18:45;;;;;;;1.45;1.35;;;17.10;99.90;;;;;;5026947;28;20223;-73
2024/04/04 11:21:13;;;;;;;2.53;1.33;;;17.10;99.90;;;;;;5036132;28;20219;-72
2024/04/04 11:23:40;;;;;;;1.75;1.63;;;17.10;99.90;;;;;;5036261;28;20223;-73
2024/04/04 11:26:06;;;;;;;3.42;1.33;;;17.10;99.90;;;;;;5036020;28;20313;-73
2024/04/04 11:28:33;;;;;;;1.55;1.38;;;16.90;99.90;;;;;;5035674;28;20218;-72
2024/04/04 11:30:59;;;;;;;2.00;1.55;;;16.80;99.90;;;;;;5036777;28;20885;-72
2024/04/04 11:33:26;;;;;;;1.60;1.50;;;16.80;99.90;;;;;;5029124;28;20211;-73
2024/04/04 11:35:54;;;;;;;2.22;1.50;;;16.80;99.90;;;;;;5029756;28;20712;-73
2024/04/04 11:38:22;;;;;;;1.85;1.70;;;16.90;99.90;;;;;;5031193;28;20218;-72
2024/04/04 11:40:49;;;;;;;1.58;1.40;;;16.80;99.90;;;;;;5033281;28;20215;-73
2024/04/04 11:43:16;;;;;;;3.80;1.90;;;16.70;99.90;;;;;;5029525;28;20218;-73
2024/04/04 11:45:42;;;;;;;1.90;1.70;;;16.60;99.90;;;;;;5033380;28;20296;-73
2024/04/04 11:48:09;;;;;;;1.60;1.50;;;16.60;99.90;;;;;;5026695;28;20227;-75
2024/04/04 11:50:36;;;;;;;2.28;1.70;;;16.50;99.90;;;;;;5030048;28;20217;-74
2024/04/04 11:53:03;;;;;;;2.67;1.75;;;16.60;99.90;;;;;;5030194;28;20219;-74
2024/04/04 11:55:32;;;;;;;4.07;1.77;;;16.60;99.90;;;;;;5030462;28;20203;-73
2024/04/04 11:57:59;;;;;;;3.58;1.65;;;16.60;99.90;;;;;;5027822;28;20223;-72
2024/04/04 12:00:25;;;;;;;2.08;1.50;;;16.70;99.90;;;;;;5033801;28;20313;-72
2024/04/04 12:02:52;;;;;;;3.42;1.60;;;16.80;99.90;;;;;;5031712;28;20213;-72
2024/04/04 12:05:18;;;;;;;2.35;1.50;;;16.80;99.90;;;;;;5028327;28;20219;-72
2024/04/04 12:07:45;;;;;;;1.40;1.30;;;16.80;99.90;;;;;;5033763;28;20646;-73
2024/04/04 12:10:14;;;;;;;1.95;1.48;;;17.00;99.90;;;;;;5036680;28;20198;-72
2024/04/04 12:12:42;;;;;;;4.10;1.60;;;17.20;99.90;;;;;;5032350;28;20206;-72
2024/04/04 12:15:08;;;;;;;3.35;1.55;;;17.40;99.90;;;;;;5033729;28;20317;-71
2024/04/04 12:17:39;;;;;;;1.30;1.20;;;17.70;99.90;;;;;;5038075;28;20345;-71
2024/04/04 12:20:08;;;;;;;1.50;1.40;;;18.00;99.90;;;;;;5037184;28;20679;-74
2024/04/04 12:22:36;;;;;;;1.50;1.40;;;18.40;99.90;;;;;;5036822;28;20231;-73
2024/04/04 12:25:04;;;;;;;1.52;1.40;;;18.50;99.90;;;;;;5034328;28;20203;-73
2024/04/04 12:27:30;;;;;;;1.98;1.40;;;18.70;99.90;;;;;;5036904;28;20242;-74
2024/04/04 12:30:00;;;;;;;2.50;1.38;;;18.70;99.90;;;;;;5036203;28;20222;-73
2024/04/04 12:32:26;;;;;;;2.47;1.55;;;18.50;99.90;;;;;;5033482;28;20254;-73
2024/04/04 12:34:53;;;;;;;2.08;1.55;;;18.50;99.90;;;;;;5034174;28;20365;-73
2024/04/04 12:37:19;;;;;;;1.48;1.35;;;18.40;99.90;;;;;;5033932;28;20966;-73
2024/04/04 12:39:46;;;;;;;2.88;1.42;;;18.30;99.90;;;;;;5034214;28;20203;-72
2024/04/04 12:42:12;;;;;;;1.88;1.60;;;18.40;99.90;;;;;;5034171;28;20310;-74
2024/04/04 12:44:44;;;;;;;2.20;1.67;;;18.70;99.90;;;;;;5034415;28;20848;-74
2024/04/04 12:47:12;;;;;;;1.52;1.27;;;19.10;99.90;;;;;;5034672;28;20337;-73
2024/04/04 12:49:39;;;;;;;1.98;1.40;;;19.50;99.90;;;;;;5033351;28;22144;-73
2024/04/04 12:52:06;;;;;;;7.13;1.63;;;19.30;99.90;;;;;;5033807;28;20225;-72